createdAt,value
2019-03-04T00:01:48.051Z,13.60
2019-03-04T00:04:16.502Z,13.60
2019-03-04T00:07:04.266Z,13.60
2019-03-04T00:09:32.729Z,13.70
2019-03-04T00:12:01.164Z,13.60
2019-03-04T00:14:29.623Z,13.70
2019-03-04T00:16:58.067Z,13.70
2019-03-04T00:19:26.517Z,13.80
2019-03-04T00:21:55.012Z,13.90
2019-03-04T00:24:23.454Z,14.00
2019-03-04T00:26:52.254Z,14.20
2019-03-04T00:29:20.943Z,14.20
2019-03-04T00:31:49.370Z,14.10
2019-03-04T00:34:17.823Z,14.10
2019-03-04T00:36:46.255Z,14.20
2019-03-04T00:39:14.715Z,14.30
2019-03-04T00:41:43.154Z,14.30
2019-03-04T00:44:11.680Z,14.20
2019-03-04T00:46:40.254Z,14.20
2019-03-04T00:49:08.682Z,14.20
2019-03-04T00:51:37.166Z,14.20
2019-03-04T00:54:05.894Z,14.20
2019-03-04T00:56:34.346Z,14.20
2019-03-04T00:59:02.859Z,14.20
2019-03-04T01:01:31.310Z,14.30
2019-03-04T01:03:59.823Z,14.40
2019-03-04T01:06:28.272Z,14.50
2019-03-04T01:08:56.703Z,14.50
2019-03-04T01:11:25.222Z,14.50
2019-03-04T01:13:53.667Z,14.60
2019-03-04T01:16:22.124Z,14.60
2019-03-04T01:18:50.638Z,14.60
2019-03-04T01:21:19.090Z,14.60
2019-03-04T01:23:47.522Z,14.70
2019-03-04T01:26:15.992Z,14.60
2019-03-04T01:28:44.444Z,14.60
2019-03-04T01:31:12.906Z,14.50
2019-03-04T01:33:41.400Z,14.50
2019-03-04T01:36:09.856Z,14.50
2019-03-04T01:38:38.298Z,14.50
2019-03-04T01:41:06.755Z,14.50
2019-03-04T01:43:35.198Z,14.50
2019-03-04T01:46:04.082Z,14.50
2019-03-04T01:48:32.540Z,14.60
2019-03-04T01:51:00.999Z,14.50
2019-03-04T01:53:29.488Z,14.60
2019-03-04T01:55:57.910Z,14.50
2019-03-04T01:58:26.366Z,14.50
2019-03-04T02:00:54.903Z,14.50
2019-03-04T02:03:23.366Z,14.60
2019-03-04T02:05:51.797Z,14.60
2019-03-04T02:08:20.344Z,14.60
2019-03-04T02:10:48.778Z,14.50
2019-03-04T02:13:17.264Z,14.50
2019-03-04T02:15:45.715Z,14.50
2019-03-04T02:18:14.230Z,14.60
2019-03-04T02:20:42.735Z,14.50
2019-03-04T02:23:11.219Z,14.50
2019-03-04T02:25:45.706Z,14.60
2019-03-04T02:28:14.230Z,14.60
2019-03-04T02:30:42.816Z,14.60
2019-03-04T02:33:11.268Z,14.60
2019-03-04T02:35:39.707Z,14.50
2019-03-04T02:38:08.261Z,14.50
2019-03-04T02:40:36.766Z,14.50
2019-03-04T02:43:05.234Z,14.60
2019-03-04T02:45:33.751Z,14.60
2019-03-04T02:48:02.215Z,14.60
2019-03-04T02:50:30.642Z,14.70
2019-03-04T02:52:59.114Z,14.80
2019-03-04T02:55:27.603Z,14.80
2019-03-04T02:57:56.138Z,14.80
2019-03-04T03:00:24.727Z,14.80
2019-03-04T03:02:53.239Z,14.80
2019-03-04T03:05:21.694Z,14.90
2019-03-04T03:07:50.134Z,14.90
2019-03-04T03:10:18.672Z,15.00
2019-03-04T03:12:47.122Z,14.90
2019-03-04T03:15:18.753Z,14.80
2019-03-04T03:17:47.255Z,14.60
2019-03-04T03:20:16.453Z,14.30
2019-03-04T03:22:44.955Z,14.10
2019-03-04T03:25:14.574Z,14.10
2019-03-04T03:27:43.021Z,14.00
2019-03-04T03:30:21.949Z,14.10
2019-03-04T03:32:50.393Z,14.00
2019-03-04T03:35:18.917Z,14.10
2019-03-04T03:37:47.431Z,14.10
2019-03-04T03:40:21.061Z,14.20
2019-03-04T03:42:49.587Z,14.30
2019-03-04T03:45:18.352Z,14.40
2019-03-04T03:47:46.787Z,14.50
2019-03-04T03:50:16.589Z,14.50
2019-03-04T03:52:45.964Z,14.60
2019-03-04T03:55:16.172Z,14.60
2019-03-04T03:57:44.822Z,14.60
2019-03-04T04:00:16.202Z,14.60
2019-03-04T04:02:44.711Z,14.70
2019-03-04T04:05:13.250Z,14.70
2019-03-04T04:07:41.826Z,14.70
2019-03-04T04:10:18.387Z,14.80
2019-03-04T04:12:46.852Z,14.80
2019-03-04T04:15:16.512Z,14.90
2019-03-04T04:17:45.056Z,14.80
2019-03-04T04:20:13.819Z,14.80
2019-03-04T04:22:42.413Z,14.70
2019-03-04T04:25:11.983Z,14.70
2019-03-04T04:27:40.457Z,14.70
2019-03-04T04:30:12.685Z,14.70
2019-03-04T04:32:41.215Z,14.70
2019-03-04T04:35:09.888Z,14.70
2019-03-04T04:37:38.346Z,14.80
2019-03-04T04:40:11.882Z,14.70
2019-03-04T04:42:40.380Z,14.80
2019-03-04T04:45:09.347Z,14.80
2019-03-04T04:47:38.836Z,14.70
2019-03-04T04:50:16.265Z,14.70
2019-03-04T04:52:44.722Z,14.50
2019-03-04T04:55:13.152Z,14.40
2019-03-04T04:57:41.599Z,14.20
2019-03-04T05:00:12.943Z,14.20
2019-03-04T05:02:41.408Z,14.10
2019-03-04T05:05:10.032Z,14.20
2019-03-04T05:07:38.539Z,14.20
2019-03-04T05:10:26.324Z,14.30
2019-03-04T05:12:54.869Z,14.40
2019-03-04T05:15:23.362Z,14.40
2019-03-04T05:17:51.817Z,14.50
2019-03-04T05:20:25.314Z,14.50
2019-03-04T05:22:53.806Z,14.60
2019-03-04T05:25:22.376Z,14.50
2019-03-04T05:27:50.891Z,14.50
2019-03-04T05:30:20.966Z,14.50
2019-03-04T05:32:49.742Z,14.60
2019-03-04T05:35:39.118Z,14.60
2019-03-04T05:38:08.147Z,14.50
2019-03-04T05:40:36.686Z,14.40
2019-03-04T05:43:05.137Z,14.30
2019-03-04T05:45:34.149Z,14.20
2019-03-04T05:48:02.598Z,14.20
2019-03-04T05:50:31.726Z,14.10
2019-03-04T05:53:02.304Z,14.20
2019-03-04T05:55:32.674Z,14.20
2019-03-04T05:58:07.399Z,14.20
2019-03-04T06:00:45.608Z,14.30
2019-03-04T06:03:17.512Z,14.40
2019-03-04T06:05:45.974Z,14.40
2019-03-04T06:08:16.543Z,14.50
2019-03-04T06:10:45.412Z,14.50
2019-03-04T06:13:14.746Z,14.50
2019-03-04T06:15:43.403Z,14.50
2019-03-04T06:18:14.431Z,14.40
2019-03-04T06:20:46.052Z,14.40
2019-03-04T06:23:14.575Z,14.50
2019-03-04T06:25:43.037Z,14.40
2019-03-04T06:28:12.128Z,14.40
2019-03-04T06:30:40.673Z,14.40
2019-03-04T06:33:09.156Z,14.50
2019-03-04T06:35:39.064Z,14.50
2019-03-04T06:38:07.508Z,14.60
2019-03-04T06:40:40.504Z,14.50
2019-03-04T06:43:13.602Z,14.60
2019-03-04T06:45:48.773Z,14.50
2019-03-04T06:48:19.879Z,14.40
2019-03-04T06:50:51.441Z,14.30
2019-03-04T06:53:32.612Z,14.40
2019-03-04T06:56:20.687Z,14.30
2019-03-04T06:59:10.156Z,14.20
2019-03-04T07:01:44.299Z,14.00
2019-03-04T07:04:18.503Z,13.80
2019-03-04T07:06:46.954Z,13.60
2019-03-04T07:09:15.398Z,13.50
2019-03-04T07:11:44.000Z,13.40
2019-03-04T07:14:12.552Z,13.60
2019-03-04T07:16:58.407Z,13.60
2019-03-04T07:19:29.160Z,13.60
2019-03-04T07:21:58.031Z,13.60
2019-03-04T07:24:26.820Z,13.70
2019-03-04T07:26:55.349Z,13.80
2019-03-04T07:29:23.949Z,13.80
2019-03-04T07:31:52.683Z,13.90
2019-03-04T07:34:21.159Z,13.90
2019-03-04T07:36:49.702Z,14.00
2019-03-04T07:39:18.192Z,14.00
2019-03-04T07:41:46.769Z,14.00
2019-03-04T07:44:15.283Z,14.10
2019-03-04T07:46:43.806Z,14.10
2019-03-04T07:49:16.082Z,14.20
2019-03-04T07:51:44.619Z,14.10
2019-03-04T07:54:13.070Z,14.10
2019-03-04T07:56:41.508Z,14.10
2019-03-04T07:59:10.027Z,14.20
2019-03-04T08:01:38.587Z,14.20
2019-03-04T08:04:07.112Z,14.30
2019-03-04T08:06:35.548Z,14.40
2019-03-04T08:09:33.874Z,14.50
2019-03-04T08:12:21.888Z,14.60
2019-03-04T08:14:50.343Z,14.60
2019-03-04T08:17:18.828Z,14.70
2019-03-04T08:19:47.283Z,14.80
2019-03-04T08:22:15.719Z,14.80
2019-03-04T08:24:44.295Z,14.90
2019-03-04T08:27:12.806Z,14.90
2019-03-04T08:29:41.321Z,14.90
2019-03-04T08:32:09.769Z,14.90
2019-03-04T08:34:38.290Z,15.00
2019-03-04T08:37:06.799Z,15.10
2019-03-04T08:39:35.334Z,15.10
2019-03-04T08:42:05.368Z,15.00
2019-03-04T08:44:33.962Z,15.00
2019-03-04T08:47:02.493Z,15.00
2019-03-04T08:49:31.044Z,15.10
2019-03-04T08:51:59.554Z,14.80
2019-03-04T08:54:28.063Z,14.30
2019-03-04T08:57:03.683Z,13.40
2019-03-04T08:59:46.111Z,12.50
2019-03-04T09:02:14.763Z,11.60
2019-03-04T09:04:43.470Z,11.00
2019-03-04T09:07:12.441Z,10.60
2019-03-04T09:09:40.995Z,10.30
2019-03-04T09:12:09.587Z,10.10
2019-03-04T09:14:38.061Z,10.10
2019-03-04T09:17:06.503Z,10.00
2019-03-04T09:19:35.032Z,10.10
2019-03-04T09:22:03.476Z,10.20
2019-03-04T09:24:31.975Z,10.40
2019-03-04T09:27:00.457Z,10.50
2019-03-04T09:29:29.049Z,10.70
2019-03-04T09:31:57.485Z,10.80
2019-03-04T09:34:25.953Z,10.90
2019-03-04T09:36:54.384Z,11.00
2019-03-04T09:39:22.830Z,11.00
2019-03-04T09:41:52.988Z,11.00
2019-03-04T09:44:22.372Z,11.10
2019-03-04T09:46:51.123Z,11.20
2019-03-04T09:49:19.559Z,11.30
2019-03-04T09:51:50.982Z,11.40
2019-03-04T09:54:19.430Z,11.50
2019-03-04T09:56:47.883Z,11.50
2019-03-04T09:59:16.331Z,11.60
2019-03-04T10:01:48.341Z,11.60
2019-03-04T10:04:28.913Z,11.70
2019-03-04T10:07:06.514Z,11.70
2019-03-04T10:09:44.095Z,11.70
2019-03-04T10:12:22.041Z,11.70
2019-03-04T10:15:12.655Z,11.70
2019-03-04T10:17:59.320Z,11.60
2019-03-04T10:20:58.283Z,11.50
2019-03-04T10:23:52.475Z,11.20
2019-03-04T10:26:40.785Z,10.90
2019-03-04T10:29:24.051Z,10.60
2019-03-04T10:32:16.600Z,10.50
2019-03-04T10:35:08.802Z,10.60
2019-03-04T10:37:40.391Z,10.70
2019-03-04T10:40:27.047Z,10.80
2019-03-04T10:43:25.770Z,10.90
2019-03-04T10:46:12.542Z,11.00
2019-03-04T10:48:41.131Z,11.30
2019-03-04T10:51:09.617Z,11.50
2019-03-04T10:53:38.119Z,11.70
2019-03-04T10:56:06.566Z,12.00
2019-03-04T10:58:35.003Z,12.20
2019-03-04T11:01:03.527Z,12.40
2019-03-04T11:03:31.950Z,12.60
2019-03-04T11:06:00.418Z,12.70
2019-03-04T11:08:28.911Z,12.80
2019-03-04T11:10:57.366Z,12.70
2019-03-04T11:13:25.799Z,12.80
2019-03-04T11:15:54.255Z,12.90
2019-03-04T11:18:22.755Z,12.90
2019-03-04T11:20:51.573Z,12.90
2019-03-04T11:23:20.150Z,13.00
2019-03-04T11:25:48.720Z,13.00
2019-03-04T11:28:17.167Z,13.10
2019-03-04T11:30:45.603Z,13.00
2019-03-04T11:33:14.131Z,13.00
2019-03-04T11:35:42.642Z,13.20
2019-03-04T11:38:36.936Z,13.30
2019-03-04T11:41:06.700Z,13.60
2019-03-04T11:43:35.122Z,14.20
2019-03-04T11:46:03.945Z,14.50
2019-03-04T11:48:32.438Z,14.80
2019-03-04T11:51:00.858Z,14.90
2019-03-04T11:53:29.327Z,14.90
2019-03-04T11:55:57.783Z,14.90
2019-03-04T11:58:26.229Z,15.00
2019-03-04T12:00:59.767Z,14.90
2019-03-04T12:03:28.295Z,15.30
2019-03-04T12:05:56.813Z,15.80
2019-03-04T12:08:25.327Z,16.10
2019-03-04T12:10:53.774Z,16.30
2019-03-04T12:13:22.238Z,16.60
2019-03-04T12:15:50.671Z,16.60
2019-03-04T12:18:19.239Z,16.30
2019-03-04T12:20:47.701Z,16.00
2019-03-04T12:23:16.211Z,15.70
2019-03-04T12:25:44.710Z,15.80
2019-03-04T12:28:13.508Z,16.10
2019-03-04T12:30:41.942Z,16.70
2019-03-04T12:33:11.236Z,17.30
2019-03-04T12:35:39.663Z,18.00
2019-03-04T12:38:08.114Z,18.70
2019-03-04T12:40:36.991Z,19.10
2019-03-04T12:43:05.558Z,18.90
2019-03-04T12:45:34.840Z,18.80
2019-03-04T12:48:03.475Z,18.50
2019-03-04T12:50:33.246Z,18.20
2019-03-04T12:53:01.776Z,17.80
2019-03-04T12:55:30.637Z,17.40
2019-03-04T12:57:59.094Z,17.00
2019-03-04T13:00:32.010Z,16.50
2019-03-04T13:03:01.578Z,15.90
2019-03-04T13:05:30.084Z,15.40
2019-03-04T13:07:58.650Z,14.90
2019-03-04T13:10:27.150Z,14.30
2019-03-04T13:12:56.597Z,13.50
2019-03-04T13:15:30.275Z,12.80
2019-03-04T13:17:58.731Z,12.30
2019-03-04T13:20:31.391Z,11.80
2019-03-04T13:22:59.852Z,11.40
2019-03-04T13:25:28.283Z,11.10
2019-03-04T13:27:56.754Z,11.10
2019-03-04T13:30:29.421Z,11.60
2019-03-04T13:32:57.883Z,11.90
2019-03-04T13:35:30.810Z,12.50
2019-03-04T13:37:59.331Z,13.00
2019-03-04T13:40:29.018Z,13.50
2019-03-04T13:42:57.547Z,13.80
2019-03-04T13:45:27.008Z,13.80
2019-03-04T13:47:55.670Z,13.80
2019-03-04T13:50:28.544Z,13.50
2019-03-04T13:52:57.977Z,13.30
2019-03-04T13:55:27.262Z,13.10
2019-03-04T13:57:55.774Z,12.60
2019-03-04T14:00:36.247Z,12.40
2019-03-04T14:03:05.751Z,12.20
2019-03-04T14:05:34.264Z,12.10
2019-03-04T14:08:02.699Z,11.90
2019-03-04T14:10:40.103Z,11.90
2019-03-04T14:13:08.627Z,11.80
2019-03-04T14:15:42.180Z,11.80
2019-03-04T14:18:10.662Z,11.70
2019-03-04T14:20:39.226Z,11.80
2019-03-04T14:23:08.295Z,11.80
2019-03-04T14:25:36.815Z,11.80
2019-03-04T14:28:05.375Z,11.90
2019-03-04T14:30:34.062Z,11.90
2019-03-04T14:33:02.718Z,11.90
2019-03-04T14:35:31.559Z,12.00
2019-03-04T14:38:00.010Z,12.20
2019-03-04T14:40:28.475Z,12.50
2019-03-04T14:42:56.892Z,12.60
2019-03-04T14:45:26.480Z,12.70
2019-03-04T14:47:55.256Z,12.70
2019-03-04T14:50:24.058Z,12.80
2019-03-04T14:52:52.492Z,12.80
2019-03-04T14:55:32.762Z,12.80
2019-03-04T14:58:02.175Z,12.80
2019-03-04T15:00:41.942Z,12.70
2019-03-04T15:03:19.869Z,12.60
2019-03-04T15:05:40.715Z,12.50
2019-03-04T15:08:09.167Z,12.40
2019-03-04T15:10:37.643Z,12.30
2019-03-04T15:13:06.154Z,12.10
2019-03-04T15:15:35.439Z,12.10
2019-03-04T15:18:04.140Z,12.10
2019-03-04T15:20:34.240Z,12.10
2019-03-04T15:23:02.830Z,12.00
2019-03-04T15:25:37.136Z,11.80
2019-03-04T15:28:23.473Z,11.50
2019-03-04T15:31:02.318Z,11.10
2019-03-04T15:33:30.824Z,10.80
2019-03-04T15:35:59.273Z,10.50
2019-03-04T15:38:27.707Z,10.20
2019-03-04T15:40:56.319Z,10.00
2019-03-04T15:43:24.745Z,9.90
2019-03-04T15:45:54.920Z,9.80
2019-03-04T15:48:25.811Z,9.80
2019-03-04T15:50:55.759Z,9.60
2019-03-04T15:53:24.501Z,9.60
2019-03-04T15:55:53.021Z,9.50
2019-03-04T15:58:21.570Z,9.50
2019-03-04T16:00:50.960Z,9.50
2019-03-04T16:03:19.739Z,9.40
2019-03-04T16:05:48.500Z,9.30
2019-03-04T16:08:17.235Z,9.20
2019-03-04T16:10:45.739Z,9.30
2019-03-04T16:13:14.357Z,9.30
2019-03-04T16:15:45.609Z,9.30
2019-03-04T16:18:14.146Z,9.40
2019-03-04T16:20:42.651Z,9.40
2019-03-04T16:23:11.104Z,9.40
2019-03-04T16:25:39.733Z,9.30
2019-03-04T16:28:26.366Z,9.30
2019-03-04T16:30:54.876Z,9.20
2019-03-04T16:33:24.258Z,9.10
2019-03-04T16:35:52.674Z,9.10
2019-03-04T16:38:22.063Z,9.10
2019-03-04T16:40:50.671Z,9.10
2019-03-04T16:43:19.115Z,9.10
2019-03-04T16:45:49.433Z,9.00
2019-03-04T16:48:18.063Z,9.00
2019-03-04T16:50:47.972Z,9.00
2019-03-04T16:53:27.911Z,9.00
2019-03-04T16:55:56.355Z,9.00
2019-03-04T16:58:24.971Z,9.00
2019-03-04T17:00:53.471Z,9.00
2019-03-04T17:03:21.997Z,9.00
2019-03-04T17:05:50.537Z,9.00
2019-03-04T17:08:19.015Z,9.10
2019-03-04T17:10:47.464Z,9.00
2019-03-04T17:13:16.103Z,9.10
2019-03-04T17:15:44.851Z,9.10
2019-03-04T17:18:13.436Z,9.10
2019-03-04T17:20:41.867Z,9.20
2019-03-04T17:23:10.334Z,9.30
2019-03-04T17:25:39.221Z,9.40
2019-03-04T17:28:07.956Z,9.50
2019-03-04T17:30:36.471Z,9.60
2019-03-04T17:33:04.990Z,9.60
2019-03-04T17:35:33.439Z,9.60
2019-03-04T17:38:01.889Z,9.60
2019-03-04T17:40:30.964Z,9.60
2019-03-04T17:42:59.485Z,9.60
2019-03-04T17:45:29.549Z,9.70
2019-03-04T17:47:59.275Z,9.70
2019-03-04T17:50:44.538Z,9.70
2019-03-04T17:53:16.759Z,9.80
2019-03-04T17:55:46.800Z,10.10
2019-03-04T17:58:15.399Z,9.90
2019-03-04T18:00:54.133Z,9.90
2019-03-04T18:03:22.610Z,9.80
2019-03-04T18:05:51.225Z,9.60
2019-03-04T18:08:19.736Z,9.60
2019-03-04T18:10:48.543Z,9.70
2019-03-04T18:13:17.871Z,9.60
2019-03-04T18:15:46.310Z,9.60
2019-03-04T18:18:14.733Z,9.70
2019-03-04T18:20:43.173Z,9.80
2019-03-04T18:23:11.601Z,9.70
2019-03-04T18:25:45.583Z,9.80
2019-03-04T18:28:23.092Z,9.80
2019-03-04T18:31:13.966Z,9.80
2019-03-04T18:34:17.474Z,9.80
2019-03-04T18:36:51.882Z,9.80
2019-03-04T18:39:35.155Z,9.60
2019-03-04T18:42:19.044Z,9.60
2019-03-04T18:45:05.237Z,9.60
2019-03-04T18:47:36.810Z,9.60
2019-03-04T18:50:06.818Z,9.50
2019-03-04T18:52:35.241Z,9.40
2019-03-04T18:55:04.566Z,9.40
2019-03-04T18:57:33.025Z,9.30
2019-03-04T19:00:01.603Z,9.40
2019-03-04T19:02:30.036Z,9.40
2019-03-04T19:04:58.490Z,9.30
2019-03-04T19:07:26.931Z,9.20
2019-03-04T19:09:55.395Z,9.30
2019-03-04T19:12:23.875Z,9.40
2019-03-04T19:14:52.323Z,9.70
2019-03-04T19:17:20.742Z,9.30
2019-03-04T19:19:49.215Z,9.30
2019-03-04T19:22:17.795Z,9.30
2019-03-04T19:24:46.288Z,9.30
2019-03-04T19:27:14.756Z,9.40
2019-03-04T19:29:43.202Z,9.40
2019-03-04T19:32:11.621Z,9.50
2019-03-04T19:34:40.103Z,9.50
2019-03-04T19:37:08.535Z,9.50
2019-03-04T19:39:37.237Z,9.40
2019-03-04T19:42:05.960Z,9.50
2019-03-04T19:44:34.388Z,9.50
2019-03-04T19:47:02.837Z,9.50
2019-03-04T19:49:31.345Z,9.50
2019-03-04T19:52:03.056Z,9.50
2019-03-04T19:54:33.695Z,9.50
2019-03-04T19:57:02.170Z,9.40
2019-03-04T19:59:30.649Z,9.30
2019-03-04T20:01:59.216Z,9.30
2019-03-04T20:04:27.723Z,9.30
2019-03-04T20:06:58.073Z,9.30
2019-03-04T20:09:26.565Z,9.20
2019-03-04T20:11:55.636Z,9.10
2019-03-04T20:14:26.640Z,9.00
2019-03-04T20:16:57.379Z,9.00
2019-03-04T20:19:25.928Z,9.00
2019-03-04T20:22:13.812Z,8.90
2019-03-04T20:24:42.571Z,9.00
2019-03-04T20:27:11.253Z,9.00
2019-03-04T20:29:39.696Z,9.10
2019-03-04T20:32:08.322Z,9.10
2019-03-04T20:34:39.820Z,9.20
2019-03-04T20:37:08.352Z,9.10
2019-03-04T20:39:36.785Z,9.10
2019-03-04T20:42:08.707Z,9.10
2019-03-04T20:44:46.847Z,9.10
2019-03-04T20:47:15.721Z,9.10
2019-03-04T20:49:44.737Z,9.10
2019-03-04T20:52:13.700Z,9.20
2019-03-04T20:54:42.153Z,9.20
2019-03-04T20:57:10.694Z,9.30
2019-03-04T20:59:39.165Z,9.40
2019-03-04T21:02:08.167Z,9.40
2019-03-04T21:04:36.861Z,9.40
2019-03-04T21:07:05.387Z,9.40
2019-03-04T21:09:38.606Z,9.50
2019-03-04T21:12:07.779Z,9.40
2019-03-04T21:14:36.396Z,9.50
2019-03-04T21:17:11.110Z,9.60
2019-03-04T21:19:39.642Z,9.60
2019-03-04T21:22:08.390Z,9.70
2019-03-04T21:24:37.150Z,9.60
2019-03-04T21:27:07.097Z,9.60
2019-03-04T21:29:51.452Z,9.60
2019-03-04T21:32:26.914Z,9.60
2019-03-04T21:35:14.369Z,9.60
2019-03-04T21:37:43.755Z,9.60
2019-03-04T21:40:20.989Z,9.60
2019-03-04T21:42:57.411Z,9.60
2019-03-04T21:46:04.147Z,9.60
2019-03-04T21:48:38.444Z,9.60
2019-03-04T21:51:23.751Z,9.60
2019-03-04T21:53:56.763Z,9.60
2019-03-04T21:56:47.748Z,9.70
2019-03-04T21:59:16.427Z,9.80
2019-03-04T22:02:04.920Z,9.70
2019-03-04T22:04:33.538Z,9.70
2019-03-04T22:07:02.750Z,9.60
2019-03-04T22:09:31.760Z,9.70
2019-03-04T22:12:00.841Z,9.80
2019-03-04T22:14:29.388Z,9.60
2019-03-04T22:16:58.333Z,9.60
2019-03-04T22:19:26.826Z,9.50
2019-03-04T22:21:55.830Z,9.50
2019-03-04T22:24:24.811Z,9.60
2019-03-04T22:26:53.378Z,9.60
2019-03-04T22:29:21.921Z,9.60
2019-03-04T22:31:50.395Z,9.50
2019-03-04T22:34:20.577Z,9.50
2019-03-04T22:36:49.218Z,9.50
2019-03-04T22:39:17.681Z,9.50
2019-03-04T22:41:46.272Z,9.50
2019-03-04T22:44:15.070Z,9.30
2019-03-04T22:46:44.319Z,9.20
2019-03-04T22:49:13.353Z,9.20
2019-03-04T22:51:42.306Z,9.20
2019-03-04T22:54:11.395Z,9.10
2019-03-04T22:56:39.993Z,9.10
2019-03-04T22:59:08.475Z,9.10
2019-03-04T23:01:39.878Z,9.10
2019-03-04T23:04:14.036Z,9.00
2019-03-04T23:06:57.429Z,9.00
2019-03-04T23:09:29.532Z,9.10
2019-03-04T23:12:21.756Z,9.20
2019-03-04T23:14:50.192Z,9.20
2019-03-04T23:17:18.727Z,9.30
2019-03-04T23:19:47.597Z,9.30
2019-03-04T23:22:16.089Z,9.30
2019-03-04T23:24:44.733Z,9.30
2019-03-04T23:27:13.762Z,9.30
2019-03-04T23:29:42.683Z,9.30
2019-03-04T23:32:11.540Z,9.20
2019-03-04T23:34:43.076Z,9.20
2019-03-04T23:37:13.468Z,9.30
2019-03-04T23:39:41.930Z,9.40
2019-03-04T23:42:10.366Z,9.50
2019-03-04T23:44:39.226Z,9.50
2019-03-04T23:47:07.895Z,9.60
2019-03-04T23:49:36.660Z,9.60
2019-03-04T23:52:05.551Z,9.60
2019-03-04T23:54:34.035Z,9.70
2019-03-04T23:57:02.482Z,9.70
2019-03-04T23:59:30.916Z,9.80
